sensor_id;sensor_type;location;lat;lon;timestamp;temperature;humidity
21950;DHT22;11139;51.284;7.226;2023-05-21T00:02:16;13.80;99.90
21950;DHT22;11139;51.284;7.226;2023-05-21T00:04:42;13.80;99.90
21950;DHT22;11139;51.284;7.226;2023-05-21T00:07:08;13.80;99.90
21950;DHT22;11139;51.284;7.226;2023-05-21T00:09:34;13.80;99.90
21950;DHT22;11139;51.284;7.226;2023-05-21T00:12:00;13.70;99.90
21950;DHT22;11139;51.284;7.226;2023-05-21T00:14:26;13.70;99.90
21950;DHT22;11139;51.284;7.226;2023-05-21T00:16:51;13.70;99.90
21950;DHT22;11139;51.284;7.226;2023-05-21T00:19:16;13.70;99.90
21950;DHT22;11139;51.284;7.226;2023-05-21T00:21:42;13.70;99.90
21950;DHT22;11139;51.284;7.226;2023-05-21T00:24:10;13.70;99.90
21950;DHT22;11139;51.284;7.226;2023-05-21T00:26:35;13.70;99.90
21950;DHT22;11139;51.284;7.226;2023-05-21T00:29:01;13.70;99.90
21950;DHT22;11139;51.284;7.226;2023-05-21T00:31:27;13.70;99.90
21950;DHT22;11139;51.284;7.226;2023-05-21T00:33:52;13.70;99.90
21950;DHT22;11139;51.284;7.226;2023-05-21T00:36:18;13.70;99.90
21950;DHT22;11139;51.284;7.226;2023-05-21T00:38:48;13.70;99.90
21950;DHT22;11139;51.284;7.226;2023-05-21T00:41:14;13.70;99.90
21950;DHT22;11139;51.284;7.226;2023-05-21T00:43:39;13.70;99.90
21950;DHT22;11139;51.284;7.226;2023-05-21T00:46:09;13.70;99.90
21950;DHT22;11139;51.284;7.226;2023-05-21T00:48:36;13.60;99.90
21950;DHT22;11139;51.284;7.226;2023-05-21T00:51:02;13.70;99.90
21950;DHT22;11139;51.284;7.226;2023-05-21T00:53:28;13.70;99.90
21950;DHT22;11139;51.284;7.226;2023-05-21T00:55:54;13.70;99.90
21950;DHT22;11139;51.284;7.226;2023-05-21T00:58:20;13.60;99.90
21950;DHT22;11139;51.284;7.226;2023-05-21T01:00:45;13.60;99.90
21950;DHT22;11139;51.284;7.226;2023-05-21T01:03:11;13.60;99.90
21950;DHT22;11139;51.284;7.226;2023-05-21T01:05:36;13.60;99.90
21950;DHT22;11139;51.284;7.226;2023-05-21T01:08:02;13.60;99.90
21950;DHT22;11139;51.284;7.226;2023-05-21T01:10:28;13.60;99.90
21950;DHT22;11139;51.284;7.226;2023-05-21T01:12:54;13.60;99.90
21950;DHT22;11139;51.284;7.226;2023-05-21T01:15:20;13.60;99.90
21950;DHT22;11139;51.284;7.226;2023-05-21T01:17:45;13.60;99.90
21950;DHT22;11139;51.284;7.226;2023-05-21T01:20:13;13.60;99.90
21950;DHT22;11139;51.284;7.226;2023-05-21T01:22:54;13.60;99.90
21950;DHT22;11139;51.284;7.226;2023-05-21T01:25:23;13.60;99.90
21950;DHT22;11139;51.284;7.226;2023-05-21T01:27:49;13.60;99.90
21950;DHT22;11139;51.284;7.226;2023-05-21T01:30:15;13.60;99.90
21950;DHT22;11139;51.284;7.226;2023-05-21T01:35:21;13.60;99.90
21950;DHT22;11139;51.284;7.226;2023-05-21T01:40:43;13.60;99.90
21950;DHT22;11139;51.284;7.226;2023-05-21T01:43:10;13.60;99.90
21950;DHT22;11139;51.284;7.226;2023-05-21T01:45:38;13.60;99.90
21950;DHT22;11139;51.284;7.226;2023-05-21T01:48:04;13.60;99.90
21950;DHT22;11139;51.284;7.226;2023-05-21T01:50:30;13.60;99.90
21950;DHT22;11139;51.284;7.226;2023-05-21T01:52:56;13.60;99.90
21950;DHT22;11139;51.284;7.226;2023-05-21T01:55:23;13.60;99.90
21950;DHT22;11139;51.284;7.226;2023-05-21T01:57:49;13.60;99.90
21950;DHT22;11139;51.284;7.226;2023-05-21T02:00:15;13.60;99.90
21950;DHT22;11139;51.284;7.226;2023-05-21T02:02:41;13.60;99.90
21950;DHT22;11139;51.284;7.226;2023-05-21T02:05:06;13.50;99.90
21950;DHT22;11139;51.284;7.226;2023-05-21T02:07:32;13.50;99.90
21950;DHT22;11139;51.284;7.226;2023-05-21T02:09:58;13.60;99.90
21950;DHT22;11139;51.284;7.226;2023-05-21T02:12:23;13.60;99.90
21950;DHT22;11139;51.284;7.226;2023-05-21T02:14:49;13.60;99.90
21950;DHT22;11139;51.284;7.226;2023-05-21T02:17:15;13.60;99.90
21950;DHT22;11139;51.284;7.226;2023-05-21T02:19:41;13.50;99.90
21950;DHT22;11139;51.284;7.226;2023-05-21T02:22:09;13.60;99.90
21950;DHT22;11139;51.284;7.226;2023-05-21T02:24:35;13.50;99.90
21950;DHT22;11139;51.284;7.226;2023-05-21T02:27:00;13.50;99.90
21950;DHT22;11139;51.284;7.226;2023-05-21T02:29:27;13.50;99.90
21950;DHT22;11139;51.284;7.226;2023-05-21T02:31:52;13.50;99.90
21950;DHT22;11139;51.284;7.226;2023-05-21T02:34:18;13.50;99.90
21950;DHT22;11139;51.284;7.226;2023-05-21T02:36:45;13.50;99.90
21950;DHT22;11139;51.284;7.226;2023-05-21T02:39:13;13.50;99.90
21950;DHT22;11139;51.284;7.226;2023-05-21T02:41:38;13.50;99.90
21950;DHT22;11139;51.284;7.226;2023-05-21T02:44:04;13.50;99.90
21950;DHT22;11139;51.284;7.226;2023-05-21T02:46:29;13.50;99.90
21950;DHT22;11139;51.284;7.226;2023-05-21T02:48:55;13.50;99.90
21950;DHT22;11139;51.284;7.226;2023-05-21T02:51:20;13.50;99.90
21950;DHT22;11139;51.284;7.226;2023-05-21T02:53:46;13.50;99.90
21950;DHT22;11139;51.284;7.226;2023-05-21T02:56:12;13.40;99.90
21950;DHT22;11139;51.284;7.226;2023-05-21T02:58:37;13.50;99.90
21950;DHT22;11139;51.284;7.226;2023-05-21T03:01:03;13.50;99.90
21950;DHT22;11139;51.284;7.226;2023-05-21T03:03:28;13.50;99.90
21950;DHT22;11139;51.284;7.226;2023-05-21T03:05:54;13.50;99.90
21950;DHT22;11139;51.284;7.226;2023-05-21T03:08:19;13.50;99.90
21950;DHT22;11139;51.284;7.226;2023-05-21T03:10:45;13.40;99.90
21950;DHT22;11139;51.284;7.226;2023-05-21T03:13:11;13.40;99.90
21950;DHT22;11139;51.284;7.226;2023-05-21T03:15:36;13.50;99.90
21950;DHT22;11139;51.284;7.226;2023-05-21T03:18:03;13.50;99.90
21950;DHT22;11139;51.284;7.226;2023-05-21T03:20:28;13.50;99.90
21950;DHT22;11139;51.284;7.226;2023-05-21T03:22:54;13.50;99.90
21950;DHT22;11139;51.284;7.226;2023-05-21T03:25:20;13.50;99.90
21950;DHT22;11139;51.284;7.226;2023-05-21T03:27:46;13.40;99.90
21950;DHT22;11139;51.284;7.226;2023-05-21T03:30:11;13.40;99.90
21950;DHT22;11139;51.284;7.226;2023-05-21T03:32:37;13.40;99.90
21950;DHT22;11139;51.284;7.226;2023-05-21T03:35:05;13.50;99.90
21950;DHT22;11139;51.284;7.226;2023-05-21T03:37:31;13.40;99.90
21950;DHT22;11139;51.284;7.226;2023-05-21T03:39:56;13.40;99.90
21950;DHT22;11139;51.284;7.226;2023-05-21T03:42:22;13.40;99.90
21950;DHT22;11139;51.284;7.226;2023-05-21T03:44:47;13.40;99.90
21950;DHT22;11139;51.284;7.226;2023-05-21T03:47:13;13.40;99.90
21950;DHT22;11139;51.284;7.226;2023-05-21T03:49:38;13.40;99.90
21950;DHT22;11139;51.284;7.226;2023-05-21T03:52:04;13.40;99.90
21950;DHT22;11139;51.284;7.226;2023-05-21T03:54:29;13.40;99.90
21950;DHT22;11139;51.284;7.226;2023-05-21T03:56:55;13.40;99.90
21950;DHT22;11139;51.284;7.226;2023-05-21T03:59:20;13.40;99.90
21950;DHT22;11139;51.284;7.226;2023-05-21T04:01:46;13.40;99.90
21950;DHT22;11139;51.284;7.226;2023-05-21T04:04:11;13.40;99.90
21950;DHT22;11139;51.284;7.226;2023-05-21T04:06:37;13.40;99.90
21950;DHT22;11139;51.284;7.226;2023-05-21T04:09:02;13.40;99.90
21950;DHT22;11139;51.284;7.226;2023-05-21T04:11:29;13.40;99.90
21950;DHT22;11139;51.284;7.226;2023-05-21T04:13:55;13.40;99.90
21950;DHT22;11139;51.284;7.226;2023-05-21T04:16:21;13.40;99.90
21950;DHT22;11139;51.284;7.226;2023-05-21T04:18:46;13.40;99.90
21950;DHT22;11139;51.284;7.226;2023-05-21T04:21:12;13.40;99.90
21950;DHT22;11139;51.284;7.226;2023-05-21T04:23:37;13.40;99.90
21950;DHT22;11139;51.284;7.226;2023-05-21T04:26:03;13.40;99.90
21950;DHT22;11139;51.284;7.226;2023-05-21T04:28:29;13.40;99.90
21950;DHT22;11139;51.284;7.226;2023-05-21T04:30:54;13.40;99.90
21950;DHT22;11139;51.284;7.226;2023-05-21T04:33:23;13.40;99.90
21950;DHT22;11139;51.284;7.226;2023-05-21T04:35:51;13.40;99.90
21950;DHT22;11139;51.284;7.226;2023-05-21T04:38:18;13.40;99.90
21950;DHT22;11139;51.284;7.226;2023-05-21T04:40:50;13.40;99.90
21950;DHT22;11139;51.284;7.226;2023-05-21T04:43:16;13.40;99.90
21950;DHT22;11139;51.284;7.226;2023-05-21T04:45:42;13.40;99.90
21950;DHT22;11139;51.284;7.226;2023-05-21T04:48:08;13.40;99.90
21950;DHT22;11139;51.284;7.226;2023-05-21T04:50:33;13.40;99.90
21950;DHT22;11139;51.284;7.226;2023-05-21T04:52:59;13.40;99.90
21950;DHT22;11139;51.284;7.226;2023-05-21T04:55:24;13.40;99.90
21950;DHT22;11139;51.284;7.226;2023-05-21T04:57:51;13.40;99.90
21950;DHT22;11139;51.284;7.226;2023-05-21T05:00:17;13.30;99.90
21950;DHT22;11139;51.284;7.226;2023-05-21T05:02:43;13.40;99.90
21950;DHT22;11139;51.284;7.226;2023-05-21T05:05:08;13.40;99.90
21950;DHT22;11139;51.284;7.226;2023-05-21T05:07:34;13.40;99.90
21950;DHT22;11139;51.284;7.226;2023-05-21T05:09:59;13.40;99.90
21950;DHT22;11139;51.284;7.226;2023-05-21T05:12:25;13.40;99.90
21950;DHT22;11139;51.284;7.226;2023-05-21T05:14:50;13.40;99.90
21950;DHT22;11139;51.284;7.226;2023-05-21T05:17:16;13.40;99.90
21950;DHT22;11139;51.284;7.226;2023-05-21T05:19:41;13.40;99.90
21950;DHT22;11139;51.284;7.226;2023-05-21T05:22:07;13.40;99.90
21950;DHT22;11139;51.284;7.226;2023-05-21T05:24:32;13.40;99.90
21950;DHT22;11139;51.284;7.226;2023-05-21T05:26:57;13.40;99.90
21950;DHT22;11139;51.284;7.226;2023-05-21T05:29:23;13.40;99.90
21950;DHT22;11139;51.284;7.226;2023-05-21T05:31:48;13.40;99.90
21950;DHT22;11139;51.284;7.226;2023-05-21T05:34:14;13.40;99.90
21950;DHT22;11139;51.284;7.226;2023-05-21T05:36:39;13.40;99.90
21950;DHT22;11139;51.284;7.226;2023-05-21T05:39:05;13.40;99.90
21950;DHT22;11139;51.284;7.226;2023-05-21T05:41:31;13.40;99.90
21950;DHT22;11139;51.284;7.226;2023-05-21T05:43:57;13.40;99.90
21950;DHT22;11139;51.284;7.226;2023-05-21T05:46:22;13.40;99.90
21950;DHT22;11139;51.284;7.226;2023-05-21T05:48:48;13.40;99.90
21950;DHT22;11139;51.284;7.226;2023-05-21T05:51:13;13.40;99.90
21950;DHT22;11139;51.284;7.226;2023-05-21T05:53:41;13.40;99.90
21950;DHT22;11139;51.284;7.226;2023-05-21T05:56:06;13.40;99.90
21950;DHT22;11139;51.284;7.226;2023-05-21T05:58:32;13.40;99.90
21950;DHT22;11139;51.284;7.226;2023-05-21T06:00:57;13.40;99.90
21950;DHT22;11139;51.284;7.226;2023-05-21T06:03:23;13.40;99.90
21950;DHT22;11139;51.284;7.226;2023-05-21T06:05:48;13.40;99.90
21950;DHT22;11139;51.284;7.226;2023-05-21T06:08:14;13.40;99.90
21950;DHT22;11139;51.284;7.226;2023-05-21T06:10:40;13.40;99.90
21950;DHT22;11139;51.284;7.226;2023-05-21T06:13:05;13.40;99.90
21950;DHT22;11139;51.284;7.226;2023-05-21T06:15:31;13.40;99.90
21950;DHT22;11139;51.284;7.226;2023-05-21T06:17:56;13.40;99.90
21950;DHT22;11139;51.284;7.226;2023-05-21T06:20:21;13.40;99.90
21950;DHT22;11139;51.284;7.226;2023-05-21T06:22:47;13.40;99.90
21950;DHT22;11139;51.284;7.226;2023-05-21T06:25:12;13.40;99.90
21950;DHT22;11139;51.284;7.226;2023-05-21T06:27:38;13.40;99.90
21950;DHT22;11139;51.284;7.226;2023-05-21T06:30:04;13.40;99.90
21950;DHT22;11139;51.284;7.226;2023-05-21T06:32:30;13.40;99.90
21950;DHT22;11139;51.284;7.226;2023-05-21T06:34:55;13.40;99.90
21950;DHT22;11139;51.284;7.226;2023-05-21T06:37:21;13.40;99.90
21950;DHT22;11139;51.284;7.226;2023-05-21T06:39:46;13.40;99.90
21950;DHT22;11139;51.284;7.226;2023-05-21T06:42:12;13.40;99.90
21950;DHT22;11139;51.284;7.226;2023-05-21T06:44:37;13.40;99.90
21950;DHT22;11139;51.284;7.226;2023-05-21T06:47:03;13.40;99.90
21950;DHT22;11139;51.284;7.226;2023-05-21T06:49:28;13.40;99.90
21950;DHT22;11139;51.284;7.226;2023-05-21T06:51:53;13.40;99.90
21950;DHT22;11139;51.284;7.226;2023-05-21T06:54:19;13.40;99.90
21950;DHT22;11139;51.284;7.226;2023-05-21T06:56:45;13.40;99.90
21950;DHT22;11139;51.284;7.226;2023-05-21T06:59:10;13.40;99.90
21950;DHT22;11139;51.284;7.226;2023-05-21T07:01:36;13.40;99.90
21950;DHT22;11139;51.284;7.226;2023-05-21T07:04:01;13.40;99.90
21950;DHT22;11139;51.284;7.226;2023-05-21T07:06:27;13.40;99.90
21950;DHT22;11139;51.284;7.226;2023-05-21T07:08:52;13.40;99.90
21950;DHT22;11139;51.284;7.226;2023-05-21T07:11:18;13.40;99.90
21950;DHT22;11139;51.284;7.226;2023-05-21T07:13:43;13.50;99.90
21950;DHT22;11139;51.284;7.226;2023-05-21T07:16:09;13.50;99.90
21950;DHT22;11139;51.284;7.226;2023-05-21T07:18:34;13.50;99.90
21950;DHT22;11139;51.284;7.226;2023-05-21T07:21:00;13.50;99.90
21950;DHT22;11139;51.284;7.226;2023-05-21T07:23:25;13.50;99.90
21950;DHT22;11139;51.284;7.226;2023-05-21T07:25:51;13.50;99.90
21950;DHT22;11139;51.284;7.226;2023-05-21T07:28:16;13.50;99.90
21950;DHT22;11139;51.284;7.226;2023-05-21T07:30:42;13.50;99.90
21950;DHT22;11139;51.284;7.226;2023-05-21T07:33:07;13.50;99.90
21950;DHT22;11139;51.284;7.226;2023-05-21T07:35:33;13.60;99.90
21950;DHT22;11139;51.284;7.226;2023-05-21T07:37:58;13.60;99.90
21950;DHT22;11139;51.284;7.226;2023-05-21T07:40:24;13.60;99.90
21950;DHT22;11139;51.284;7.226;2023-05-21T07:42:49;13.60;99.90
21950;DHT22;11139;51.284;7.226;2023-05-21T07:45:15;13.60;99.90
21950;DHT22;11139;51.284;7.226;2023-05-21T07:47:41;13.60;99.90
21950;DHT22;11139;51.284;7.226;2023-05-21T07:50:06;13.60;99.90
21950;DHT22;11139;51.284;7.226;2023-05-21T07:52:32;13.60;99.90
21950;DHT22;11139;51.284;7.226;2023-05-21T07:54:57;13.70;99.90
21950;DHT22;11139;51.284;7.226;2023-05-21T07:57:23;13.60;99.90
21950;DHT22;11139;51.284;7.226;2023-05-21T07:59:48;13.70;99.90
21950;DHT22;11139;51.284;7.226;2023-05-21T08:02:14;13.60;99.90
21950;DHT22;11139;51.284;7.226;2023-05-21T08:04:39;13.70;99.90
21950;DHT22;11139;51.284;7.226;2023-05-21T08:07:06;13.70;99.90
21950;DHT22;11139;51.284;7.226;2023-05-21T08:09:32;13.70;99.90
21950;DHT22;11139;51.284;7.226;2023-05-21T08:11:57;13.70;99.90
21950;DHT22;11139;51.284;7.226;2023-05-21T08:14:23;13.70;99.90
21950;DHT22;11139;51.284;7.226;2023-05-21T08:16:48;13.80;99.90
21950;DHT22;11139;51.284;7.226;2023-05-21T08:19:13;13.80;99.90
21950;DHT22;11139;51.284;7.226;2023-05-21T08:21:39;13.80;99.90
21950;DHT22;11139;51.284;7.226;2023-05-21T08:24:05;13.80;99.90
21950;DHT22;11139;51.284;7.226;2023-05-21T08:26:31;13.80;99.90
21950;DHT22;11139;51.284;7.226;2023-05-21T08:28:56;13.80;99.90
21950;DHT22;11139;51.284;7.226;2023-05-21T08:31:22;13.80;99.90
21950;DHT22;11139;51.284;7.226;2023-05-21T08:33:51;13.80;99.90
21950;DHT22;11139;51.284;7.226;2023-05-21T08:36:19;13.80;99.90
21950;DHT22;11139;51.284;7.226;2023-05-21T08:38:44;13.80;99.90
21950;DHT22;11139;51.284;7.226;2023-05-21T08:41:10;13.80;99.90
21950;DHT22;11139;51.284;7.226;2023-05-21T08:43:36;13.80;99.90
21950;DHT22;11139;51.284;7.226;2023-05-21T08:46:03;13.80;99.90
21950;DHT22;11139;51.284;7.226;2023-05-21T08:48:28;13.80;99.90
21950;DHT22;11139;51.284;7.226;2023-05-21T08:50:55;13.80;99.90
21950;DHT22;11139;51.284;7.226;2023-05-21T08:53:21;13.90;99.90
21950;DHT22;11139;51.284;7.226;2023-05-21T08:55:47;13.90;99.90
21950;DHT22;11139;51.284;7.226;2023-05-21T08:58:14;13.90;99.90
21950;DHT22;11139;51.284;7.226;2023-05-21T09:00:40;13.90;99.90
21950;DHT22;11139;51.284;7.226;2023-05-21T09:03:05;13.90;99.90
21950;DHT22;11139;51.284;7.226;2023-05-21T09:05:42;13.90;99.90
21950;DHT22;11139;51.284;7.226;2023-05-21T09:10:52;13.90;99.90
21950;DHT22;11139;51.284;7.226;2023-05-21T09:13:17;14.00;99.90
21950;DHT22;11139;51.284;7.226;2023-05-21T09:15:44;14.00;99.90
21950;DHT22;11139;51.284;7.226;2023-05-21T09:18:10;14.00;99.90
21950;DHT22;11139;51.284;7.226;2023-05-21T09:20:35;14.00;99.90
21950;DHT22;11139;51.284;7.226;2023-05-21T09:23:02;14.00;99.90
21950;DHT22;11139;51.284;7.226;2023-05-21T09:25:27;14.00;99.90
21950;DHT22;11139;51.284;7.226;2023-05-21T09:27:54;14.10;99.90
21950;DHT22;11139;51.284;7.226;2023-05-21T09:30:20;14.10;99.90
21950;DHT22;11139;51.284;7.226;2023-05-21T09:32:52;14.10;99.90
21950;DHT22;11139;51.284;7.226;2023-05-21T09:35:21;14.10;99.90
21950;DHT22;11139;51.284;7.226;2023-05-21T09:37:47;14.10;99.90
21950;DHT22;11139;51.284;7.226;2023-05-21T09:40:13;14.10;99.90
21950;DHT22;11139;51.284;7.226;2023-05-21T09:42:40;14.10;99.90
21950;DHT22;11139;51.284;7.226;2023-05-21T09:45:09;14.10;99.90
21950;DHT22;11139;51.284;7.226;2023-05-21T09:47:41;14.20;99.90
21950;DHT22;11139;51.284;7.226;2023-05-21T09:50:10;14.20;99.90
21950;DHT22;11139;51.284;7.226;2023-05-21T09:52:36;14.20;99.90
21950;DHT22;11139;51.284;7.226;2023-05-21T09:55:02;14.20;99.90
21950;DHT22;11139;51.284;7.226;2023-05-21T09:57:28;14.20;99.90
21950;DHT22;11139;51.284;7.226;2023-05-21T09:59:53;14.20;99.90
21950;DHT22;11139;51.284;7.226;2023-05-21T10:02:20;14.20;99.90
21950;DHT22;11139;51.284;7.226;2023-05-21T10:04:50;14.20;99.90
21950;DHT22;11139;51.284;7.226;2023-05-21T10:07:19;14.30;99.90
21950;DHT22;11139;51.284;7.226;2023-05-21T10:09:52;14.30;99.90
21950;DHT22;11139;51.284;7.226;2023-05-21T10:12:20;14.30;99.90
21950;DHT22;11139;51.284;7.226;2023-05-21T10:14:48;14.30;99.90
21950;DHT22;11139;51.284;7.226;2023-05-21T10:17:15;14.30;99.90
21950;DHT22;11139;51.284;7.226;2023-05-21T10:19:41;14.30;99.90
21950;DHT22;11139;51.284;7.226;2023-05-21T10:22:06;14.40;99.90
21950;DHT22;11139;51.284;7.226;2023-05-21T10:24:32;14.40;99.90
21950;DHT22;11139;51.284;7.226;2023-05-21T10:26:58;14.40;99.90
21950;DHT22;11139;51.284;7.226;2023-05-21T10:29:26;14.40;99.90
21950;DHT22;11139;51.284;7.226;2023-05-21T10:31:51;14.40;99.90
21950;DHT22;11139;51.284;7.226;2023-05-21T10:34:17;14.50;99.90
21950;DHT22;11139;51.284;7.226;2023-05-21T10:36:43;14.50;99.90
21950;DHT22;11139;51.284;7.226;2023-05-21T10:39:10;14.50;99.90
21950;DHT22;11139;51.284;7.226;2023-05-21T10:41:45;14.60;99.90
21950;DHT22;11139;51.284;7.226;2023-05-21T10:59:30;14.70;99.90
21950;DHT22;11139;51.284;7.226;2023-05-21T11:01:57;14.70;99.90
21950;DHT22;11139;51.284;7.226;2023-05-21T11:04:27;14.80;99.90
21950;DHT22;11139;51.284;7.226;2023-05-21T11:06:52;14.80;99.90
21950;DHT22;11139;51.284;7.226;2023-05-21T11:09:18;14.80;99.90
21950;DHT22;11139;51.284;7.226;2023-05-21T11:11:44;14.80;99.90
21950;DHT22;11139;51.284;7.226;2023-05-21T11:16:50;14.90;99.90
21950;DHT22;11139;51.284;7.226;2023-05-21T11:19:16;14.90;99.90
21950;DHT22;11139;51.284;7.226;2023-05-21T11:21:42;14.90;99.90
21950;DHT22;11139;51.284;7.226;2023-05-21T11:24:07;14.90;99.90
21950;DHT22;11139;51.284;7.226;2023-05-21T11:29:12;14.90;99.90
21950;DHT22;11139;51.284;7.226;2023-05-21T11:31:39;14.90;99.90
21950;DHT22;11139;51.284;7.226;2023-05-21T11:34:22;15.00;99.90
21950;DHT22;11139;51.284;7.226;2023-05-21T11:39:38;15.00;99.90
21950;DHT22;11139;51.284;7.226;2023-05-21T11:42:04;15.00;99.90
21950;DHT22;11139;51.284;7.226;2023-05-21T11:44:36;15.00;99.90
21950;DHT22;11139;51.284;7.226;2023-05-21T11:47:03;15.00;99.90
21950;DHT22;11139;51.284;7.226;2023-05-21T11:49:29;15.10;99.90
21950;DHT22;11139;51.284;7.226;2023-05-21T11:51:55;15.10;99.90
21950;DHT22;11139;51.284;7.226;2023-05-21T11:54:21;15.20;99.90
21950;DHT22;11139;51.284;7.226;2023-05-21T11:56:48;15.20;99.90
21950;DHT22;11139;51.284;7.226;2023-05-21T11:59:13;15.20;99.90
21950;DHT22;11139;51.284;7.226;2023-05-21T12:01:43;15.30;99.90
21950;DHT22;11139;51.284;7.226;2023-05-21T12:04:09;15.20;99.90
21950;DHT22;11139;51.284;7.226;2023-05-21T12:06:37;15.30;99.90
21950;DHT22;11139;51.284;7.226;2023-05-21T12:09:02;15.30;99.90
21950;DHT22;11139;51.284;7.226;2023-05-21T12:11:29;15.30;99.90
21950;DHT22;11139;51.284;7.226;2023-05-21T12:13:55;15.30;99.90
21950;DHT22;11139;51.284;7.226;2023-05-21T12:16:21;15.30;99.90
21950;DHT22;11139;51.284;7.226;2023-05-21T12:18:46;15.30;99.90
21950;DHT22;11139;51.284;7.226;2023-05-21T12:21:12;15.40;99.90
21950;DHT22;11139;51.284;7.226;2023-05-21T12:23:37;15.40;99.90
21950;DHT22;11139;51.284;7.226;2023-05-21T12:26:03;15.40;99.90
21950;DHT22;11139;51.284;7.226;2023-05-21T12:28:29;15.40;99.90
21950;DHT22;11139;51.284;7.226;2023-05-21T12:30:54;15.40;99.90
21950;DHT22;11139;51.284;7.226;2023-05-21T12:33:20;15.40;99.90
21950;DHT22;11139;51.284;7.226;2023-05-21T12:35:46;15.40;99.90
21950;DHT22;11139;51.284;7.226;2023-05-21T12:38:14;15.40;99.90
21950;DHT22;11139;51.284;7.226;2023-05-21T12:40:39;15.40;99.90
21950;DHT22;11139;51.284;7.226;2023-05-21T12:43:05;15.50;99.90
21950;DHT22;11139;51.284;7.226;2023-05-21T12:45:31;15.50;99.90
21950;DHT22;11139;51.284;7.226;2023-05-21T12:47:59;15.50;99.90
21950;DHT22;11139;51.284;7.226;2023-05-21T12:50:25;15.50;99.90
21950;DHT22;11139;51.284;7.226;2023-05-21T12:52:53;15.50;99.90
21950;DHT22;11139;51.284;7.226;2023-05-21T12:55:21;15.60;99.90
21950;DHT22;11139;51.284;7.226;2023-05-21T12:57:47;15.60;99.90
21950;DHT22;11139;51.284;7.226;2023-05-21T13:00:12;15.70;99.90
21950;DHT22;11139;51.284;7.226;2023-05-21T13:02:39;15.70;99.90
21950;DHT22;11139;51.284;7.226;2023-05-21T13:05:06;15.70;99.90
21950;DHT22;11139;51.284;7.226;2023-05-21T13:07:33;15.70;99.90
21950;DHT22;11139;51.284;7.226;2023-05-21T13:09:59;15.70;99.90
21950;DHT22;11139;51.284;7.226;2023-05-21T13:12:26;15.80;99.90
21950;DHT22;11139;51.284;7.226;2023-05-21T13:14:52;15.80;99.90
21950;DHT22;11139;51.284;7.226;2023-05-21T13:17:18;15.80;99.90
21950;DHT22;11139;51.284;7.226;2023-05-21T13:20:02;15.80;99.90
21950;DHT22;11139;51.284;7.226;2023-05-21T13:22:30;15.90;99.90
21950;DHT22;11139;51.284;7.226;2023-05-21T13:24:56;15.90;99.90
21950;DHT22;11139;51.284;7.226;2023-05-21T13:27:21;15.80;99.90
21950;DHT22;11139;51.284;7.226;2023-05-21T13:29:46;15.90;99.90
21950;DHT22;11139;51.284;7.226;2023-05-21T13:32:12;15.90;99.90
21950;DHT22;11139;51.284;7.226;2023-05-21T13:34:37;15.90;99.90
21950;DHT22;11139;51.284;7.226;2023-05-21T13:37:03;15.90;99.90
21950;DHT22;11139;51.284;7.226;2023-05-21T13:39:28;16.00;99.90
21950;DHT22;11139;51.284;7.226;2023-05-21T13:41:54;16.00;99.90
21950;DHT22;11139;51.284;7.226;2023-05-21T13:44:19;16.00;99.90
21950;DHT22;11139;51.284;7.226;2023-05-21T13:46:45;16.00;99.90
21950;DHT22;11139;51.284;7.226;2023-05-21T13:49:10;16.10;99.90
21950;DHT22;11139;51.284;7.226;2023-05-21T13:51:36;16.10;99.90
21950;DHT22;11139;51.284;7.226;2023-05-21T13:54:01;16.20;99.90
21950;DHT22;11139;51.284;7.226;2023-05-21T13:56:27;16.20;99.90
21950;DHT22;11139;51.284;7.226;2023-05-21T13:58:52;16.30;99.90
21950;DHT22;11139;51.284;7.226;2023-05-21T14:01:18;16.30;99.90
21950;DHT22;11139;51.284;7.226;2023-05-21T14:03:43;16.30;99.90
21950;DHT22;11139;51.284;7.226;2023-05-21T14:06:09;16.30;99.90
21950;DHT22;11139;51.284;7.226;2023-05-21T14:08:35;16.30;99.90
21950;DHT22;11139;51.284;7.226;2023-05-21T14:11:00;16.40;99.90
21950;DHT22;11139;51.284;7.226;2023-05-21T14:13:26;16.40;99.90
21950;DHT22;11139;51.284;7.226;2023-05-21T14:15:52;16.40;99.90
21950;DHT22;11139;51.284;7.226;2023-05-21T14:18:17;16.50;99.90
21950;DHT22;11139;51.284;7.226;2023-05-21T14:20:43;16.50;99.90
21950;DHT22;11139;51.284;7.226;2023-05-21T14:23:08;16.50;99.90
21950;DHT22;11139;51.284;7.226;2023-05-21T14:25:35;16.50;99.90
21950;DHT22;11139;51.284;7.226;2023-05-21T14:28:01;16.50;99.90
21950;DHT22;11139;51.284;7.226;2023-05-21T14:30:27;16.60;99.90
21950;DHT22;11139;51.284;7.226;2023-05-21T14:32:52;16.50;99.90
21950;DHT22;11139;51.284;7.226;2023-05-21T14:35:17;16.60;99.90
21950;DHT22;11139;51.284;7.226;2023-05-21T14:37:43;16.60;99.90
21950;DHT22;11139;51.284;7.226;2023-05-21T14:40:08;16.60;99.90
21950;DHT22;11139;51.284;7.226;2023-05-21T14:42:34;16.60;99.90
21950;DHT22;11139;51.284;7.226;2023-05-21T14:45:00;16.60;99.90
21950;DHT22;11139;51.284;7.226;2023-05-21T14:47:26;16.70;99.90
21950;DHT22;11139;51.284;7.226;2023-05-21T14:49:51;16.70;99.90
21950;DHT22;11139;51.284;7.226;2023-05-21T14:52:17;16.70;99.90
21950;DHT22;11139;51.284;7.226;2023-05-21T14:54:42;16.70;99.90
21950;DHT22;11139;51.284;7.226;2023-05-21T14:57:07;16.80;99.90
21950;DHT22;11139;51.284;7.226;2023-05-21T14:59:33;16.80;99.90
21950;DHT22;11139;51.284;7.226;2023-05-21T15:01:58;16.70;99.90
21950;DHT22;11139;51.284;7.226;2023-05-21T15:04:24;16.70;99.90
21950;DHT22;11139;51.284;7.226;2023-05-21T15:06:50;16.70;99.90
21950;DHT22;11139;51.284;7.226;2023-05-21T15:09:16;16.80;99.90
21950;DHT22;11139;51.284;7.226;2023-05-21T15:11:41;16.80;99.90
21950;DHT22;11139;51.284;7.226;2023-05-21T15:14:08;16.80;99.90
21950;DHT22;11139;51.284;7.226;2023-05-21T15:16:34;16.80;99.90
21950;DHT22;11139;51.284;7.226;2023-05-21T15:18:59;16.80;99.90
21950;DHT22;11139;51.284;7.226;2023-05-21T15:21:25;16.90;99.90
21950;DHT22;11139;51.284;7.226;2023-05-21T15:23:50;16.90;99.90
21950;DHT22;11139;51.284;7.226;2023-05-21T15:26:16;17.00;99.90
21950;DHT22;11139;51.284;7.226;2023-05-21T15:28:41;16.90;99.90
21950;DHT22;11139;51.284;7.226;2023-05-21T15:31:07;17.00;99.90
21950;DHT22;11139;51.284;7.226;2023-05-21T15:33:33;17.00;99.90
21950;DHT22;11139;51.284;7.226;2023-05-21T15:35:58;17.00;99.90
21950;DHT22;11139;51.284;7.226;2023-05-21T15:38:24;17.00;99.90
21950;DHT22;11139;51.284;7.226;2023-05-21T15:40:49;17.00;99.90
21950;DHT22;11139;51.284;7.226;2023-05-21T15:43:15;17.00;99.90
21950;DHT22;11139;51.284;7.226;2023-05-21T15:45:40;17.10;99.90
21950;DHT22;11139;51.284;7.226;2023-05-21T15:48:06;17.10;99.90
21950;DHT22;11139;51.284;7.226;2023-05-21T15:50:31;17.10;99.90
21950;DHT22;11139;51.284;7.226;2023-05-21T15:52:59;17.10;99.90
21950;DHT22;11139;51.284;7.226;2023-05-21T15:55:25;17.10;99.90